sensor_id;sensor_type;location;lat;lon;timestamp;pressure;altitude;pressure_sealevel;temperature;humidity
69971;BME280;57301;50.328;8.542;2023-07-13T00:00:00;98422.63;;;14.35;74.53
69971;BME280;57301;50.328;8.542;2023-07-13T00:02:27;98422.47;;;14.37;74.46
69971;BME280;57301;50.328;8.542;2023-07-13T00:04:53;98422.94;;;14.40;74.38
69971;BME280;57301;50.328;8.542;2023-07-13T00:07:20;98430.41;;;14.30;74.57
69971;BME280;57301;50.328;8.542;2023-07-13T00:09:47;98430.41;;;14.30;74.81
69971;BME280;57301;50.328;8.542;2023-07-13T00:12:29;98427.72;;;14.30;74.28
69971;BME280;57301;50.328;8.542;2023-07-13T00:14:58;98437.91;;;14.35;74.21
69971;BME280;57301;50.328;8.542;2023-07-13T00:17:27;98428.59;;;14.22;74.87
69971;BME280;57301;50.328;8.542;2023-07-13T00:19:55;98425.19;;;14.29;75.28
69971;BME280;57301;50.328;8.542;2023-07-13T00:22:23;98427.66;;;14.15;75.65
69971;BME280;57301;50.328;8.542;2023-07-13T00:24:53;98431.06;;;14.32;75.05
69971;BME280;57301;50.328;8.542;2023-07-13T00:27:22;98431.69;;;14.34;74.83
69971;BME280;57301;50.328;8.542;2023-07-13T00:29:49;98426.44;;;14.41;74.54
69971;BME280;57301;50.328;8.542;2023-07-13T00:32:15;98431.63;;;14.42;74.43
69971;BME280;57301;50.328;8.542;2023-07-13T00:34:42;98435.78;;;14.53;75.08
69971;BME280;57301;50.328;8.542;2023-07-13T00:37:08;98436.53;;;14.39;75.05
69971;BME280;57301;50.328;8.542;2023-07-13T00:39:35;98436.94;;;14.28;75.25
69971;BME280;57301;50.328;8.542;2023-07-13T00:42:03;98435.28;;;14.27;75.11
69971;BME280;57301;50.328;8.542;2023-07-13T00:44:30;98448.16;;;14.31;75.49
69971;BME280;57301;50.328;8.542;2023-07-13T00:46:57;98442.69;;;14.24;75.84
69971;BME280;57301;50.328;8.542;2023-07-13T00:49:26;98447.31;;;14.08;76.07
69971;BME280;57301;50.328;8.542;2023-07-13T00:51:55;98446.31;;;14.09;76.30
69971;BME280;57301;50.328;8.542;2023-07-13T00:54:26;98447.13;;;14.09;76.45
69971;BME280;57301;50.328;8.542;2023-07-13T00:56:58;98451.28;;;13.89;76.95
69971;BME280;57301;50.328;8.542;2023-07-13T00:59:25;98454.09;;;13.95;76.95
69971;BME280;57301;50.328;8.542;2023-07-13T01:01:52;98457.22;;;14.07;77.25
69971;BME280;57301;50.328;8.542;2023-07-13T01:04:20;98447.78;;;14.11;76.86
69971;BME280;57301;50.328;8.542;2023-07-13T01:06:49;98453.56;;;14.23;76.14
69971;BME280;57301;50.328;8.542;2023-07-13T01:09:16;98454.72;;;14.06;76.10
69971;BME280;57301;50.328;8.542;2023-07-13T01:11:44;98456.13;;;14.16;75.80
69971;BME280;57301;50.328;8.542;2023-07-13T01:14:11;98465.19;;;14.15;74.72
69971;BME280;57301;50.328;8.542;2023-07-13T01:16:41;98458.28;;;14.21;75.20
69971;BME280;57301;50.328;8.542;2023-07-13T01:19:32;98457.88;;;14.32;74.93
69971;BME280;57301;50.328;8.542;2023-07-13T01:22:08;98461.75;;;14.30;74.20
69971;BME280;57301;50.328;8.542;2023-07-13T01:24:39;98464.97;;;14.25;74.28
69971;BME280;57301;50.328;8.542;2023-07-13T01:27:07;98450.84;;;14.31;74.46
69971;BME280;57301;50.328;8.542;2023-07-13T01:29:36;98453.53;;;14.31;74.68
69971;BME280;57301;50.328;8.542;2023-07-13T01:32:14;98445.66;;;14.30;75.13
69971;BME280;57301;50.328;8.542;2023-07-13T01:34:41;98451.00;;;14.30;74.76
69971;BME280;57301;50.328;8.542;2023-07-13T01:37:10;98445.38;;;14.24;74.91
69971;BME280;57301;50.328;8.542;2023-07-13T01:39:37;98440.16;;;14.23;75.28
69971;BME280;57301;50.328;8.542;2023-07-13T01:42:04;98440.22;;;14.15;75.24
69971;BME280;57301;50.328;8.542;2023-07-13T01:44:30;98434.56;;;14.10;75.00
69971;BME280;57301;50.328;8.542;2023-07-13T01:46:57;98426.25;;;13.96;75.45
69971;BME280;57301;50.328;8.542;2023-07-13T01:49:24;98437.34;;;13.93;75.79
69971;BME280;57301;50.328;8.542;2023-07-13T01:51:50;98432.81;;;13.94;75.54
69971;BME280;57301;50.328;8.542;2023-07-13T01:54:17;98432.34;;;13.90;75.47
69971;BME280;57301;50.328;8.542;2023-07-13T01:56:43;98432.53;;;13.89;75.80
69971;BME280;57301;50.328;8.542;2023-07-13T01:59:10;98428.06;;;13.73;76.26
69971;BME280;57301;50.328;8.542;2023-07-13T02:01:36;98428.44;;;13.62;76.09
69971;BME280;57301;50.328;8.542;2023-07-13T02:04:03;98436.03;;;13.58;76.84
69971;BME280;57301;50.328;8.542;2023-07-13T02:06:30;98440.09;;;13.38;77.16
69971;BME280;57301;50.328;8.542;2023-07-13T02:08:57;98441.97;;;13.29;76.97
69971;BME280;57301;50.328;8.542;2023-07-13T02:11:24;98448.84;;;13.24;77.94
69971;BME280;57301;50.328;8.542;2023-07-13T02:13:51;98435.94;;;13.35;77.55
69971;BME280;57301;50.328;8.542;2023-07-13T02:16:18;98433.06;;;13.37;77.23
69971;BME280;57301;50.328;8.542;2023-07-13T02:18:44;98445.47;;;13.38;77.24
69971;BME280;57301;50.328;8.542;2023-07-13T02:21:11;98446.19;;;13.24;77.12
69971;BME280;57301;50.328;8.542;2023-07-13T02:23:37;98451.53;;;13.24;77.53
69971;BME280;57301;50.328;8.542;2023-07-13T02:26:04;98453.19;;;13.25;77.34
69971;BME280;57301;50.328;8.542;2023-07-13T02:28:30;98448.00;;;13.31;77.15
69971;BME280;57301;50.328;8.542;2023-07-13T02:31:04;98452.19;;;13.26;76.97
69971;BME280;57301;50.328;8.542;2023-07-13T02:33:31;98450.53;;;13.25;76.90
69971;BME280;57301;50.328;8.542;2023-07-13T02:35:57;98438.97;;;13.24;76.71
69971;BME280;57301;50.328;8.542;2023-07-13T02:38:24;98444.81;;;13.19;76.96
69971;BME280;57301;50.328;8.542;2023-07-13T02:40:50;98451.91;;;13.21;76.84
69971;BME280;57301;50.328;8.542;2023-07-13T02:43:17;98459.88;;;13.12;76.96
69971;BME280;57301;50.328;8.542;2023-07-13T02:45:45;98453.22;;;13.08;77.45
69971;BME280;57301;50.328;8.542;2023-07-13T02:48:13;98459.56;;;13.07;77.85
69971;BME280;57301;50.328;8.542;2023-07-13T02:50:40;98457.75;;;13.08;77.64
69971;BME280;57301;50.328;8.542;2023-07-13T02:53:06;98451.88;;;13.12;77.12
69971;BME280;57301;50.328;8.542;2023-07-13T02:55:33;98446.34;;;13.06;77.71
69971;BME280;57301;50.328;8.542;2023-07-13T02:57:59;98445.19;;;13.08;77.69
69971;BME280;57301;50.328;8.542;2023-07-13T03:00:26;98451.38;;;13.09;77.11
69971;BME280;57301;50.328;8.542;2023-07-13T03:02:52;98455.59;;;12.87;77.79
69971;BME280;57301;50.328;8.542;2023-07-13T03:05:19;98456.09;;;12.82;77.84
69971;BME280;57301;50.328;8.542;2023-07-13T03:07:45;98464.16;;;12.66;78.16
69971;BME280;57301;50.328;8.542;2023-07-13T03:10:12;98459.44;;;12.52;78.73
69971;BME280;57301;50.328;8.542;2023-07-13T03:12:38;98463.66;;;12.46;78.77
69971;BME280;57301;50.328;8.542;2023-07-13T03:15:05;98461.63;;;12.48;79.05
69971;BME280;57301;50.328;8.542;2023-07-13T03:17:31;98471.19;;;12.59;79.10
69971;BME280;57301;50.328;8.542;2023-07-13T03:19:58;98471.66;;;12.62;78.80
69971;BME280;57301;50.328;8.542;2023-07-13T03:22:24;98469.50;;;12.74;78.95
69971;BME280;57301;50.328;8.542;2023-07-13T03:24:51;98472.00;;;12.76;78.56
69971;BME280;57301;50.328;8.542;2023-07-13T03:27:17;98475.34;;;12.70;78.93
69971;BME280;57301;50.328;8.542;2023-07-13T03:29:44;98478.34;;;12.50;79.17
69971;BME280;57301;50.328;8.542;2023-07-13T03:32:10;98471.66;;;12.38;79.55
69971;BME280;57301;50.328;8.542;2023-07-13T03:34:37;98478.53;;;12.41;79.85
69971;BME280;57301;50.328;8.542;2023-07-13T03:37:04;98484.53;;;12.34;80.29
69971;BME280;57301;50.328;8.542;2023-07-13T03:39:30;98490.06;;;12.41;79.61
69971;BME280;57301;50.328;8.542;2023-07-13T03:41:57;98500.41;;;12.36;79.94
69971;BME280;57301;50.328;8.542;2023-07-13T03:44:23;98503.25;;;12.34;80.02
69971;BME280;57301;50.328;8.542;2023-07-13T03:46:50;98508.09;;;12.39;79.77
69971;BME280;57301;50.328;8.542;2023-07-13T03:49:17;98510.25;;;12.44;79.59
69971;BME280;57301;50.328;8.542;2023-07-13T03:51:43;98514.47;;;12.46;79.27
69971;BME280;57301;50.328;8.542;2023-07-13T03:54:09;98510.44;;;12.42;79.63
69971;BME280;57301;50.328;8.542;2023-07-13T03:56:36;98518.28;;;12.44;79.89
69971;BME280;57301;50.328;8.542;2023-07-13T03:59:02;98516.44;;;12.44;79.96
69971;BME280;57301;50.328;8.542;2023-07-13T04:01:29;98513.28;;;12.41;79.61
69971;BME280;57301;50.328;8.542;2023-07-13T04:03:56;98519.78;;;12.30;78.96
69971;BME280;57301;50.328;8.542;2023-07-13T04:06:26;98514.97;;;12.58;77.99
69971;BME280;57301;50.328;8.542;2023-07-13T04:08:56;98517.81;;;12.56;77.96
69971;BME280;57301;50.328;8.542;2023-07-13T04:11:26;98517.84;;;12.64;77.75
69971;BME280;57301;50.328;8.542;2023-07-13T04:13:53;98507.44;;;12.70;78.12
69971;BME280;57301;50.328;8.542;2023-07-13T04:16:20;98509.13;;;12.79;77.48
69971;BME280;57301;50.328;8.542;2023-07-13T04:18:47;98518.16;;;12.86;77.70
69971;BME280;57301;50.328;8.542;2023-07-13T04:21:20;98510.13;;;12.86;77.87
69971;BME280;57301;50.328;8.542;2023-07-13T04:24:16;98510.94;;;12.95;77.19
69971;BME280;57301;50.328;8.542;2023-07-13T04:26:42;98512.97;;;12.93;77.38
69971;BME280;57301;50.328;8.542;2023-07-13T04:29:09;98520.00;;;13.02;77.10
69971;BME280;57301;50.328;8.542;2023-07-13T04:31:35;98514.44;;;13.11;76.70
69971;BME280;57301;50.328;8.542;2023-07-13T04:34:11;98519.13;;;13.26;76.52
69971;BME280;57301;50.328;8.542;2023-07-13T04:36:37;98517.13;;;13.36;76.28
69971;BME280;57301;50.328;8.542;2023-07-13T04:39:07;98515.09;;;13.38;76.40
69971;BME280;57301;50.328;8.542;2023-07-13T04:41:42;98515.78;;;13.40;76.39
69971;BME280;57301;50.328;8.542;2023-07-13T04:44:12;98520.28;;;13.48;76.02
69971;BME280;57301;50.328;8.542;2023-07-13T04:46:41;98520.75;;;13.59;75.73
69971;BME280;57301;50.328;8.542;2023-07-13T04:49:08;98524.41;;;13.66;75.41
69971;BME280;57301;50.328;8.542;2023-07-13T04:51:35;98518.16;;;13.74;75.33
69971;BME280;57301;50.328;8.542;2023-07-13T04:54:01;98512.94;;;13.81;75.37
69971;BME280;57301;50.328;8.542;2023-07-13T04:56:28;98517.94;;;13.92;75.45
69971;BME280;57301;50.328;8.542;2023-07-13T04:58:54;98516.19;;;14.07;75.08
69971;BME280;57301;50.328;8.542;2023-07-13T05:01:22;98526.22;;;14.13;75.04
69971;BME280;57301;50.328;8.542;2023-07-13T05:03:49;98530.06;;;14.19;75.51
69971;BME280;57301;50.328;8.542;2023-07-13T05:06:16;98523.84;;;14.18;75.29
69971;BME280;57301;50.328;8.542;2023-07-13T05:08:42;98527.81;;;14.31;75.41
69971;BME280;57301;50.328;8.542;2023-07-13T05:11:09;98517.53;;;14.34;75.11
69971;BME280;57301;50.328;8.542;2023-07-13T05:13:36;98530.22;;;14.48;74.28
69971;BME280;57301;50.328;8.542;2023-07-13T05:16:04;98522.31;;;14.55;74.19
69971;BME280;57301;50.328;8.542;2023-07-13T05:18:34;98517.31;;;14.75;72.70
69971;BME280;57301;50.328;8.542;2023-07-13T05:21:08;98523.53;;;14.90;71.68
69971;BME280;57301;50.328;8.542;2023-07-13T05:23:36;98519.53;;;15.09;71.00
69971;BME280;57301;50.328;8.542;2023-07-13T05:26:03;98519.28;;;15.33;69.19
69971;BME280;57301;50.328;8.542;2023-07-13T05:28:35;98527.09;;;15.58;67.74
69971;BME280;57301;50.328;8.542;2023-07-13T05:31:02;98532.16;;;15.91;66.31
69971;BME280;57301;50.328;8.542;2023-07-13T05:33:29;98522.75;;;16.16;65.90
69971;BME280;57301;50.328;8.542;2023-07-13T05:35:56;98530.47;;;16.62;64.89
69971;BME280;57301;50.328;8.542;2023-07-13T05:38:22;98525.56;;;17.36;62.32
69971;BME280;57301;50.328;8.542;2023-07-13T05:40:49;98534.44;;;17.86;60.27
69971;BME280;57301;50.328;8.542;2023-07-13T05:43:16;98527.97;;;18.29;58.07
69971;BME280;57301;50.328;8.542;2023-07-13T05:45:42;98523.56;;;18.82;57.01
69971;BME280;57301;50.328;8.542;2023-07-13T05:48:09;98532.13;;;19.12;52.91
69971;BME280;57301;50.328;8.542;2023-07-13T05:50:36;98535.03;;;19.17;52.94
69971;BME280;57301;50.328;8.542;2023-07-13T05:53:03;98530.66;;;19.63;51.23
69971;BME280;57301;50.328;8.542;2023-07-13T05:55:30;98527.06;;;19.95;50.10
69971;BME280;57301;50.328;8.542;2023-07-13T05:57:57;98534.31;;;19.95;48.10
69971;BME280;57301;50.328;8.542;2023-07-13T06:00:24;98538.72;;;19.89;48.57
69971;BME280;57301;50.328;8.542;2023-07-13T06:02:51;98540.94;;;20.63;47.70
69971;BME280;57301;50.328;8.542;2023-07-13T06:05:17;98545.19;;;20.84;47.58
69971;BME280;57301;50.328;8.542;2023-07-13T06:07:44;98538.97;;;20.77;46.87
69971;BME280;57301;50.328;8.542;2023-07-13T06:10:10;98537.84;;;21.16;46.07
69971;BME280;57301;50.328;8.542;2023-07-13T06:12:37;98536.16;;;21.22;45.08
69971;BME280;57301;50.328;8.542;2023-07-13T06:15:04;98547.09;;;20.46;46.70
69971;BME280;57301;50.328;8.542;2023-07-13T06:17:30;98544.38;;;20.46;46.18
69971;BME280;57301;50.328;8.542;2023-07-13T06:19:57;98540.63;;;20.78;46.11
69971;BME280;57301;50.328;8.542;2023-07-13T06:22:23;98534.84;;;21.56;44.42
69971;BME280;57301;50.328;8.542;2023-07-13T06:24:50;98540.66;;;21.60;43.78
69971;BME280;57301;50.328;8.542;2023-07-13T06:27:17;98549.28;;;21.93;43.64
69971;BME280;57301;50.328;8.542;2023-07-13T06:29:43;98549.38;;;21.43;44.38
69971;BME280;57301;50.328;8.542;2023-07-13T06:32:11;98543.19;;;21.98;43.72
69971;BME280;57301;50.328;8.542;2023-07-13T06:34:37;98551.56;;;22.15;43.32
69971;BME280;57301;50.328;8.542;2023-07-13T06:37:08;98540.63;;;22.21;43.00
69971;BME280;57301;50.328;8.542;2023-07-13T06:39:34;98541.59;;;22.45;42.46
69971;BME280;57301;50.328;8.542;2023-07-13T06:42:01;98545.88;;;22.83;42.06
69971;BME280;57301;50.328;8.542;2023-07-13T06:44:27;98554.31;;;23.23;40.34
69971;BME280;57301;50.328;8.542;2023-07-13T06:46:54;98553.22;;;23.24;40.91
69971;BME280;57301;50.328;8.542;2023-07-13T06:49:20;98559.13;;;23.10;40.95
69971;BME280;57301;50.328;8.542;2023-07-13T06:51:47;98548.69;;;23.83;40.24
69971;BME280;57301;50.328;8.542;2023-07-13T06:54:13;98560.16;;;23.74;40.00
69971;BME280;57301;50.328;8.542;2023-07-13T06:56:40;98563.00;;;23.79;39.91
69971;BME280;57301;50.328;8.542;2023-07-13T06:59:06;98563.53;;;24.28;38.90
69971;BME280;57301;50.328;8.542;2023-07-13T07:01:33;98561.91;;;24.67;38.62
69971;BME280;57301;50.328;8.542;2023-07-13T07:03:59;98553.16;;;24.13;38.70
69971;BME280;57301;50.328;8.542;2023-07-13T07:06:26;98562.69;;;24.51;38.49
69971;BME280;57301;50.328;8.542;2023-07-13T07:08:52;98565.66;;;24.78;38.55
69971;BME280;57301;50.328;8.542;2023-07-13T07:11:22;98570.47;;;25.16;38.03
69971;BME280;57301;50.328;8.542;2023-07-13T07:13:50;98570.91;;;24.39;38.57
69971;BME280;57301;50.328;8.542;2023-07-13T07:16:18;98573.72;;;24.32;38.03
69971;BME280;57301;50.328;8.542;2023-07-13T07:18:45;98573.13;;;24.42;38.41
69971;BME280;57301;50.328;8.542;2023-07-13T07:21:12;98572.00;;;24.15;38.50
69971;BME280;57301;50.328;8.542;2023-07-13T07:23:40;98572.81;;;24.96;38.84
69971;BME280;57301;50.328;8.542;2023-07-13T07:26:07;98579.84;;;24.63;38.38
69971;BME280;57301;50.328;8.542;2023-07-13T07:28:35;98566.41;;;24.21;38.47
69971;BME280;57301;50.328;8.542;2023-07-13T07:31:05;98581.13;;;23.97;38.66
69971;BME280;57301;50.328;8.542;2023-07-13T07:33:34;98581.00;;;24.96;38.28
69971;BME280;57301;50.328;8.542;2023-07-13T07:36:01;98576.22;;;25.03;37.35
69971;BME280;57301;50.328;8.542;2023-07-13T07:38:31;98580.84;;;24.45;36.42
69971;BME280;57301;50.328;8.542;2023-07-13T07:40:57;98583.69;;;24.50;37.41
69971;BME280;57301;50.328;8.542;2023-07-13T07:43:27;98580.84;;;24.22;37.72
69971;BME280;57301;50.328;8.542;2023-07-13T07:45:53;98574.34;;;23.99;37.46
69971;BME280;57301;50.328;8.542;2023-07-13T07:48:20;98585.94;;;23.59;38.12
69971;BME280;57301;50.328;8.542;2023-07-13T07:50:46;98584.03;;;24.30;37.27
69971;BME280;57301;50.328;8.542;2023-07-13T07:53:17;98584.22;;;23.65;38.51
69971;BME280;57301;50.328;8.542;2023-07-13T07:55:44;98579.47;;;23.72;38.01
69971;BME280;57301;50.328;8.542;2023-07-13T07:58:15;98569.56;;;23.24;38.58
69971;BME280;57301;50.328;8.542;2023-07-13T08:01:03;98595.59;;;23.20;39.21
69971;BME280;57301;50.328;8.542;2023-07-13T08:03:33;98591.47;;;23.29;39.17
69971;BME280;57301;50.328;8.542;2023-07-13T08:06:03;98595.13;;;24.00;37.64
69971;BME280;57301;50.328;8.542;2023-07-13T08:08:32;98584.28;;;24.29;36.66
69971;BME280;57301;50.328;8.542;2023-07-13T08:11:03;98584.69;;;23.85;37.57
69971;BME280;57301;50.328;8.542;2023-07-13T08:13:40;98586.66;;;23.55;37.31
69971;BME280;57301;50.328;8.542;2023-07-13T08:16:06;98583.69;;;23.56;38.85
69971;BME280;57301;50.328;8.542;2023-07-13T08:18:33;98586.94;;;23.23;38.09
69971;BME280;57301;50.328;8.542;2023-07-13T08:21:07;98590.31;;;23.49;38.02
69971;BME280;57301;50.328;8.542;2023-07-13T08:23:34;98599.91;;;23.40;37.34
69971;BME280;57301;50.328;8.542;2023-07-13T08:26:01;98592.00;;;22.78;38.30
69971;BME280;57301;50.328;8.542;2023-07-13T08:28:29;98590.00;;;22.85;37.96
69971;BME280;57301;50.328;8.542;2023-07-13T08:31:00;98590.03;;;23.15;38.19
69971;BME280;57301;50.328;8.542;2023-07-13T08:33:27;98600.06;;;23.15;37.85
69971;BME280;57301;50.328;8.542;2023-07-13T08:35:53;98606.72;;;22.15;39.16
69971;BME280;57301;50.328;8.542;2023-07-13T08:38:20;98604.72;;;22.47;38.98
69971;BME280;57301;50.328;8.542;2023-07-13T08:40:54;98612.97;;;22.71;38.72
69971;BME280;57301;50.328;8.542;2023-07-13T08:43:26;98599.25;;;23.68;37.88
69971;BME280;57301;50.328;8.542;2023-07-13T08:46:02;98589.88;;;23.75;37.10
69971;BME280;57301;50.328;8.542;2023-07-13T08:48:46;98597.59;;;24.37;36.90
69971;BME280;57301;50.328;8.542;2023-07-13T08:54:03;98591.56;;;23.23;37.18
69971;BME280;57301;50.328;8.542;2023-07-13T08:56:31;98589.56;;;24.59;36.10
69971;BME280;57301;50.328;8.542;2023-07-13T08:59:12;98596.09;;;24.58;35.73
69971;BME280;57301;50.328;8.542;2023-07-13T09:05:04;98595.97;;;24.93;35.27
69971;BME280;57301;50.328;8.542;2023-07-13T09:10:51;98580.44;;;23.78;36.46
69971;BME280;57301;50.328;8.542;2023-07-13T09:13:39;98582.09;;;24.54;35.85
69971;BME280;57301;50.328;8.542;2023-07-13T09:16:11;98588.22;;;24.21;36.03
69971;BME280;57301;50.328;8.542;2023-07-13T09:18:49;98587.03;;;24.05;36.59
69971;BME280;57301;50.328;8.542;2023-07-13T09:21:31;98592.00;;;24.08;36.43
69971;BME280;57301;50.328;8.542;2023-07-13T09:24:29;98590.38;;;23.72;36.69
69971;BME280;57301;50.328;8.542;2023-07-13T09:27:19;98586.50;;;24.55;36.03
69971;BME280;57301;50.328;8.542;2023-07-13T09:29:50;98583.56;;;24.33;36.93
69971;BME280;57301;50.328;8.542;2023-07-13T09:32:25;98582.03;;;24.78;34.53
69971;BME280;57301;50.328;8.542;2023-07-13T09:34:53;98583.25;;;24.70;34.47
69971;BME280;57301;50.328;8.542;2023-07-13T09:37:29;98583.22;;;24.42;34.84
69971;BME280;57301;50.328;8.542;2023-07-13T09:40:03;98587.38;;;24.32;34.98
69971;BME280;57301;50.328;8.542;2023-07-13T09:42:33;98575.13;;;25.32;33.72
69971;BME280;57301;50.328;8.542;2023-07-13T09:45:01;98584.16;;;23.53;36.34
69971;BME280;57301;50.328;8.542;2023-07-13T09:47:42;98582.97;;;25.29;33.93
69971;BME280;57301;50.328;8.542;2023-07-13T09:50:20;98576.06;;;24.92;33.81
69971;BME280;57301;50.328;8.542;2023-07-13T09:52:50;98581.25;;;25.39;33.63
69971;BME280;57301;50.328;8.542;2023-07-13T09:58:12;98586.56;;;25.01;33.72
69971;BME280;57301;50.328;8.542;2023-07-13T10:00:57;98575.69;;;24.60;34.13
69971;BME280;57301;50.328;8.542;2023-07-13T10:03:34;98579.88;;;24.51;34.14
69971;BME280;57301;50.328;8.542;2023-07-13T10:06:16;98575.19;;;25.21;33.97
69971;BME280;57301;50.328;8.542;2023-07-13T10:08:50;98572.25;;;25.39;33.01
69971;BME280;57301;50.328;8.542;2023-07-13T10:11:35;98583.16;;;25.39;32.72
69971;BME280;57301;50.328;8.542;2023-07-13T10:14:18;98579.19;;;25.30;34.34
69971;BME280;57301;50.328;8.542;2023-07-13T10:16:47;98570.81;;;24.91;33.89
69971;BME280;57301;50.328;8.542;2023-07-13T10:19:26;98573.34;;;24.52;34.35
69971;BME280;57301;50.328;8.542;2023-07-13T10:22:02;98569.09;;;24.73;34.53
69971;BME280;57301;50.328;8.542;2023-07-13T10:24:37;98574.41;;;25.87;32.54
69971;BME280;57301;50.328;8.542;2023-07-13T10:27:13;98572.75;;;25.86;33.28
69971;BME280;57301;50.328;8.542;2023-07-13T10:29:46;98560.97;;;26.24;32.39
69971;BME280;57301;50.328;8.542;2023-07-13T10:32:14;98562.81;;;26.19;32.54
69971;BME280;57301;50.328;8.542;2023-07-13T10:34:44;98574.72;;;26.73;31.46
69971;BME280;57301;50.328;8.542;2023-07-13T10:37:19;98570.91;;;25.58;32.16
69971;BME280;57301;50.328;8.542;2023-07-13T10:39:47;98568.22;;;25.75;32.57
69971;BME280;57301;50.328;8.542;2023-07-13T10:42:30;98572.56;;;24.97;33.08
69971;BME280;57301;50.328;8.542;2023-07-13T10:44:59;98569.66;;;25.15;33.17
69971;BME280;57301;50.328;8.542;2023-07-13T10:47:26;98575.75;;;25.85;32.34
69971;BME280;57301;50.328;8.542;2023-07-13T10:49:55;98561.19;;;25.79;33.07
69971;BME280;57301;50.328;8.542;2023-07-13T10:52:48;98565.50;;;26.36;32.67
69971;BME280;57301;50.328;8.542;2023-07-13T10:55:54;98577.78;;;25.44;32.26
69971;BME280;57301;50.328;8.542;2023-07-13T10:58:31;98581.72;;;24.91;32.40
69971;BME280;57301;50.328;8.542;2023-07-13T11:01:11;98577.47;;;24.55;33.13
69971;BME280;57301;50.328;8.542;2023-07-13T11:03:59;98581.09;;;24.20;34.00
69971;BME280;57301;50.328;8.542;2023-07-13T11:09:36;98580.19;;;24.95;33.75
69971;BME280;57301;50.328;8.542;2023-07-13T11:15:10;98577.44;;;24.38;34.48
69971;BME280;57301;50.328;8.542;2023-07-13T11:17:48;98568.63;;;24.24;35.03
69971;BME280;57301;50.328;8.542;2023-07-13T11:22:52;98557.28;;;24.27;34.40
69971;BME280;57301;50.328;8.542;2023-07-13T11:25:28;98566.69;;;24.60;35.09
69971;BME280;57301;50.328;8.542;2023-07-13T11:30:38;98564.72;;;25.01;33.19
69971;BME280;57301;50.328;8.542;2023-07-13T11:38:39;98567.59;;;26.29;31.09
69971;BME280;57301;50.328;8.542;2023-07-13T11:41:18;98551.19;;;26.50;30.79
69971;BME280;57301;50.328;8.542;2023-07-13T11:43:49;98560.78;;;26.09;31.23
69971;BME280;57301;50.328;8.542;2023-07-13T11:46:22;98569.69;;;25.66;32.95
69971;BME280;57301;50.328;8.542;2023-07-13T11:48:49;98563.13;;;25.84;33.55
69971;BME280;57301;50.328;8.542;2023-07-13T11:51:21;98565.97;;;26.49;32.26
69971;BME280;57301;50.328;8.542;2023-07-13T11:53:51;98557.69;;;26.44;32.56
69971;BME280;57301;50.328;8.542;2023-07-13T11:56:20;98562.63;;;26.69;32.08
69971;BME280;57301;50.328;8.542;2023-07-13T11:58:52;98558.63;;;27.04;32.44
69971;BME280;57301;50.328;8.542;2023-07-13T12:01:28;98562.44;;;26.10;32.59
69971;BME280;57301;50.328;8.542;2023-07-13T12:04:03;98558.06;;;26.09;33.17
69971;BME280;57301;50.328;8.542;2023-07-13T12:06:33;98565.59;;;26.02;33.68
69971;BME280;57301;50.328;8.542;2023-07-13T12:09:02;98572.41;;;25.83;33.73
69971;BME280;57301;50.328;8.542;2023-07-13T12:11:30;98567.13;;;25.76;33.92
69971;BME280;57301;50.328;8.542;2023-07-13T12:14:01;98569.22;;;26.46;33.41
69971;BME280;57301;50.328;8.542;2023-07-13T12:16:32;98571.19;;;26.12;33.76
69971;BME280;57301;50.328;8.542;2023-07-13T12:19:00;98572.09;;;25.79;33.12
69971;BME280;57301;50.328;8.542;2023-07-13T12:21:38;98577.66;;;26.45;31.90
69971;BME280;57301;50.328;8.542;2023-07-13T12:24:16;98571.47;;;27.57;31.09
69971;BME280;57301;50.328;8.542;2023-07-13T12:26:44;98578.81;;;26.71;31.08
69971;BME280;57301;50.328;8.542;2023-07-13T12:29:16;98562.13;;;26.50;31.62
69971;BME280;57301;50.328;8.542;2023-07-13T12:31:45;98573.47;;;25.98;32.22
69971;BME280;57301;50.328;8.542;2023-07-13T12:34:15;98587.31;;;25.92;33.08
69971;BME280;57301;50.328;8.542;2023-07-13T12:37:00;98582.56;;;25.70;32.25
69971;BME280;57301;50.328;8.542;2023-07-13T12:39:33;98568.50;;;25.28;32.63
69971;BME280;57301;50.328;8.542;2023-07-13T12:42:25;98589.03;;;25.02;34.31
69971;BME280;57301;50.328;8.542;2023-07-13T12:45:02;98579.94;;;24.97;34.07
69971;BME280;57301;50.328;8.542;2023-07-13T12:47:40;98584.94;;;25.16;33.90
69971;BME280;57301;50.328;8.542;2023-07-13T12:50:17;98582.47;;;26.38;32.75
69971;BME280;57301;50.328;8.542;2023-07-13T12:52:44;98583.53;;;26.54;31.79
69971;BME280;57301;50.328;8.542;2023-07-13T12:55:18;98586.63;;;26.02;32.48
69971;BME280;57301;50.328;8.542;2023-07-13T12:57:55;98590.16;;;25.80;32.82
69971;BME280;57301;50.328;8.542;2023-07-13T13:00:27;98598.00;;;25.93;33.31
69971;BME280;57301;50.328;8.542;2023-07-13T13:02:56;98581.09;;;25.63;32.83
69971;BME280;57301;50.328;8.542;2023-07-13T13:05:43;98593.19;;;25.84;32.41
69971;BME280;57301;50.328;8.542;2023-07-13T13:08:11;98594.22;;;26.38;31.75
69971;BME280;57301;50.328;8.542;2023-07-13T13:10:38;98602.81;;;26.25;32.01
69971;BME280;57301;50.328;8.542;2023-07-13T13:13:05;98583.56;;;25.64;33.45
69971;BME280;57301;50.328;8.542;2023-07-13T13:15:31;98593.75;;;25.18;33.30
69971;BME280;57301;50.328;8.542;2023-07-13T13:17:59;98597.81;;;25.66;33.16
69971;BME280;57301;50.328;8.542;2023-07-13T13:20:25;98599.63;;;25.27;32.38
69971;BME280;57301;50.328;8.542;2023-07-13T13:22:52;98605.50;;;25.36;32.41
69971;BME280;57301;50.328;8.542;2023-07-13T13:25:19;98605.94;;;25.61;32.05
69971;BME280;57301;50.328;8.542;2023-07-13T13:27:46;98608.16;;;26.37;31.47
69971;BME280;57301;50.328;8.542;2023-07-13T13:30:14;98604.38;;;25.49;32.61
69971;BME280;57301;50.328;8.542;2023-07-13T13:32:43;98605.78;;;25.06;33.28
69971;BME280;57301;50.328;8.542;2023-07-13T13:35:15;98615.22;;;25.94;32.10
69971;BME280;57301;50.328;8.542;2023-07-13T13:37:42;98618.84;;;25.66;32.85
69971;BME280;57301;50.328;8.542;2023-07-13T13:40:14;98604.91;;;25.17;33.68
69971;BME280;57301;50.328;8.542;2023-07-13T13:42:42;98615.38;;;25.54;33.79